createdAt,value
2023-01-24T00:01:17.693Z,23.67
2023-01-24T00:03:47.048Z,28.00
2023-01-24T00:06:14.926Z,29.00
2023-01-24T00:08:43.003Z,30.90
2023-01-24T00:11:13.046Z,27.20
2023-01-24T00:13:41.302Z,25.03
2023-01-24T00:16:11.779Z,27.90
2023-01-24T00:18:39.970Z,27.20
2023-01-24T00:21:13.156Z,34.70
2023-01-24T00:23:41.734Z,30.03
2023-01-24T00:26:10.033Z,29.97
2023-01-24T00:28:37.992Z,31.23
2023-01-24T00:31:06.340Z,31.40
2023-01-24T00:33:34.937Z,31.80
2023-01-24T00:36:03.653Z,31.30
2023-01-24T00:38:33.606Z,28.07
2023-01-24T00:41:01.464Z,27.17
2023-01-24T00:43:29.434Z,32.70
2023-01-24T00:45:57.929Z,31.43
2023-01-24T00:48:25.718Z,30.40
2023-01-24T00:50:54.018Z,26.23
2023-01-24T00:53:22.131Z,28.70
2023-01-24T00:55:51.513Z,29.17
2023-01-24T00:58:19.540Z,27.67
2023-01-24T01:00:47.201Z,28.63
2023-01-24T01:03:16.777Z,30.63
2023-01-24T01:05:44.973Z,30.30
2023-01-24T01:08:13.345Z,28.07
2023-01-24T01:10:41.407Z,33.23
2023-01-24T01:13:13.221Z,27.80
2023-01-24T01:15:41.102Z,31.13
2023-01-24T01:18:09.068Z,35.53
2023-01-24T01:20:36.951Z,31.53
2023-01-24T01:23:04.774Z,26.97
2023-01-24T01:25:32.878Z,30.97
2023-01-24T01:28:00.762Z,28.43
2023-01-24T01:30:29.829Z,29.03
2023-01-24T01:32:57.575Z,31.27
2023-01-24T01:35:25.335Z,27.93
2023-01-24T01:37:53.085Z,27.90
2023-01-24T01:40:20.987Z,31.50
2023-01-24T01:42:53.277Z,29.03
2023-01-24T01:45:41.599Z,33.03
2023-01-24T01:48:19.551Z,29.13
2023-01-24T01:50:52.787Z,32.53
2023-01-24T01:53:22.731Z,31.83
2023-01-24T01:55:57.044Z,31.73
2023-01-24T01:58:24.936Z,28.90
2023-01-24T02:00:54.126Z,28.17
2023-01-24T02:03:40.489Z,29.27
2023-01-24T02:06:15.222Z,28.57
2023-01-24T02:08:44.627Z,27.13
2023-01-24T02:11:32.029Z,25.53
2023-01-24T02:14:15.587Z,30.27
2023-01-24T02:16:44.812Z,29.27
2023-01-24T02:19:24.898Z,29.10
2023-01-24T02:21:59.791Z,25.00
2023-01-24T02:24:33.938Z,26.40
2023-01-24T02:27:03.145Z,27.13
2023-01-24T02:29:30.900Z,26.60
2023-01-24T02:32:00.419Z,25.50
2023-01-24T02:34:29.284Z,26.33
2023-01-24T02:36:59.568Z,23.70
2023-01-24T02:39:30.318Z,26.77
2023-01-24T02:42:02.568Z,28.10
2023-01-24T02:44:39.428Z,24.37
2023-01-24T02:47:07.139Z,25.97
2023-01-24T02:49:34.892Z,28.43
2023-01-24T02:52:20.283Z,26.17
2023-01-24T02:54:48.066Z,25.03
2023-01-24T02:57:33.416Z,27.43
2023-01-24T03:00:02.495Z,20.73
2023-01-24T03:02:30.210Z,22.17
2023-01-24T03:04:57.889Z,21.77
2023-01-24T03:07:25.690Z,27.07
2023-01-24T03:09:53.567Z,21.87
2023-01-24T03:12:38.750Z,22.70
2023-01-24T03:15:26.363Z,20.20
2023-01-24T03:18:11.741Z,23.13
2023-01-24T03:20:57.099Z,21.70
2023-01-24T03:23:42.335Z,22.87
2023-01-24T03:26:27.737Z,21.97
2023-01-24T03:29:12.888Z,23.37
2023-01-24T03:31:59.815Z,25.37
2023-01-24T03:34:33.810Z,24.27
2023-01-24T03:37:01.825Z,22.93
2023-01-24T03:39:47.277Z,22.80
2023-01-24T03:42:15.048Z,21.03
2023-01-24T03:44:42.760Z,22.40
2023-01-24T03:47:11.820Z,24.30
2023-01-24T03:49:57.173Z,26.47
2023-01-24T03:52:29.537Z,27.23
2023-01-24T03:54:57.564Z,29.57
2023-01-24T03:57:25.900Z,26.53
2023-01-24T03:59:54.101Z,25.23
2023-01-24T04:02:23.466Z,28.63
2023-01-24T04:05:08.861Z,25.20
2023-01-24T04:07:36.681Z,25.87
2023-01-24T04:10:04.958Z,21.70
2023-01-24T04:12:32.629Z,24.07
2023-01-24T04:15:00.344Z,24.53
2023-01-24T04:17:29.429Z,28.23
2023-01-24T04:19:57.144Z,24.40
2023-01-24T04:22:25.156Z,21.57
2023-01-24T04:24:52.972Z,23.90
2023-01-24T04:27:20.733Z,22.30
2023-01-24T04:29:48.546Z,18.20
2023-01-24T04:32:16.229Z,20.57
2023-01-24T04:34:45.327Z,21.10
2023-01-24T04:37:12.996Z,22.10
2023-01-24T04:39:40.694Z,20.60
2023-01-24T04:42:08.580Z,21.43
2023-01-24T04:44:36.332Z,20.67
2023-01-24T04:47:04.235Z,19.83
2023-01-24T04:49:31.927Z,21.83
2023-01-24T04:52:01.008Z,18.97
2023-01-24T04:54:28.720Z,20.60
2023-01-24T04:56:56.427Z,18.37
2023-01-24T04:59:24.073Z,23.70
2023-01-24T05:01:51.826Z,22.40
2023-01-24T05:04:19.616Z,20.07
2023-01-24T05:06:47.366Z,20.73
2023-01-24T05:09:16.459Z,21.93
2023-01-24T05:11:44.146Z,20.63
2023-01-24T05:14:12.653Z,21.40
2023-01-24T05:16:40.445Z,22.07
2023-01-24T05:19:08.172Z,20.37
2023-01-24T05:21:35.840Z,20.03
2023-01-24T05:24:03.600Z,20.40
2023-01-24T05:26:32.766Z,19.27
2023-01-24T05:29:00.543Z,17.57
2023-01-24T05:31:28.252Z,18.27
2023-01-24T05:33:56.055Z,20.77
2023-01-24T05:36:25.280Z,20.83
2023-01-24T05:38:53.049Z,16.30
2023-01-24T05:41:22.194Z,20.27
2023-01-24T05:43:51.628Z,19.07
2023-01-24T05:46:22.165Z,19.27
2023-01-24T05:48:50.942Z,19.73
2023-01-24T05:51:20.249Z,18.13
2023-01-24T05:53:48.268Z,16.33
2023-01-24T05:56:18.791Z,15.23
2023-01-24T05:58:47.632Z,17.67
2023-01-24T06:01:18.787Z,16.63
2023-01-24T06:03:48.611Z,14.67
2023-01-24T06:06:18.284Z,17.80
2023-01-24T06:08:46.581Z,16.30
2023-01-24T06:11:16.930Z,12.90
2023-01-24T06:13:45.236Z,12.80
2023-01-24T06:16:14.630Z,14.97
2023-01-24T06:18:44.154Z,15.23
2023-01-24T06:21:23.888Z,12.83
2023-01-24T06:23:52.269Z,14.37
2023-01-24T06:26:20.952Z,13.40
2023-01-24T06:28:49.320Z,12.43
2023-01-24T06:31:28.589Z,17.57
2023-01-24T06:34:15.199Z,14.93
2023-01-24T06:36:55.829Z,15.17
2023-01-24T06:39:24.234Z,14.70
2023-01-24T06:41:52.493Z,14.10
2023-01-24T06:44:20.924Z,13.30
2023-01-24T06:46:48.622Z,12.07
2023-01-24T06:49:17.815Z,13.17
2023-01-24T06:51:51.383Z,11.50
2023-01-24T06:54:19.255Z,11.23
2023-01-24T06:56:46.973Z,11.60
2023-01-24T06:59:14.694Z,13.80
2023-01-24T07:01:42.437Z,12.00
2023-01-24T07:04:10.211Z,13.20
2023-01-24T07:06:39.316Z,11.03
2023-01-24T07:09:07.421Z,10.43
2023-01-24T07:11:35.319Z,12.60
2023-01-24T07:14:03.363Z,11.63
2023-01-24T07:16:31.117Z,14.90
2023-01-24T07:18:59.378Z,16.97
2023-01-24T07:21:27.668Z,12.57
2023-01-24T07:23:59.891Z,11.03
2023-01-24T07:26:28.465Z,10.67
2023-01-24T07:28:56.183Z,12.17
2023-01-24T07:31:23.964Z,11.90
2023-01-24T07:33:51.730Z,10.27
2023-01-24T07:36:19.520Z,11.30
2023-01-24T07:38:47.303Z,13.97
2023-01-24T07:41:16.382Z,14.47
2023-01-24T07:43:44.089Z,15.17
2023-01-24T07:46:11.819Z,12.97
2023-01-24T07:48:39.614Z,13.13
2023-01-24T07:51:07.898Z,14.37
2023-01-24T07:53:36.359Z,12.63
2023-01-24T07:56:05.098Z,11.27
2023-01-24T07:58:34.898Z,12.93
2023-01-24T08:01:02.773Z,11.47
2023-01-24T08:03:30.511Z,10.50
2023-01-24T08:05:58.720Z,9.93
2023-01-24T08:08:26.528Z,11.20
2023-01-24T08:10:54.285Z,12.37
2023-01-24T08:13:23.090Z,12.30
2023-01-24T08:15:52.188Z,11.13
2023-01-24T08:18:19.844Z,13.17
2023-01-24T08:20:47.857Z,13.00
2023-01-24T08:23:15.597Z,12.73
2023-01-24T08:25:43.390Z,12.23
2023-01-24T08:28:11.175Z,12.87
2023-01-24T08:30:39.000Z,14.03
2023-01-24T08:33:08.608Z,12.40
2023-01-24T08:35:39.302Z,12.40
2023-01-24T08:38:07.653Z,11.30
2023-01-24T08:40:44.426Z,11.70
2023-01-24T08:43:16.637Z,14.77
2023-01-24T08:45:44.345Z,18.83
2023-01-24T08:48:13.596Z,11.10
2023-01-24T08:50:42.564Z,9.50
2023-01-24T08:53:11.861Z,11.23
2023-01-24T08:55:39.831Z,15.23
2023-01-24T08:58:07.541Z,12.53
2023-01-24T09:00:35.398Z,13.23
2023-01-24T09:03:03.205Z,13.30
2023-01-24T09:05:33.097Z,11.17
2023-01-24T09:08:01.688Z,14.33
2023-01-24T09:10:29.484Z,15.27
2023-01-24T09:12:57.170Z,13.47
2023-01-24T09:15:25.382Z,12.97
2023-01-24T09:17:53.229Z,13.27
2023-01-24T09:20:20.928Z,14.20
2023-01-24T09:22:50.056Z,16.07
2023-01-24T09:25:17.966Z,16.40
2023-01-24T09:27:46.341Z,13.53
2023-01-24T09:30:15.196Z,13.10
2023-01-24T09:32:45.847Z,12.77
2023-01-24T09:35:13.727Z,13.03
2023-01-24T09:37:43.522Z,11.23
2023-01-24T09:40:23.253Z,11.50
2023-01-24T09:43:02.766Z,11.50
2023-01-24T09:45:34.334Z,12.30
2023-01-24T09:48:04.823Z,11.80
2023-01-24T09:50:40.439Z,13.13
2023-01-24T09:53:16.531Z,12.27
2023-01-24T09:55:45.747Z,12.43
2023-01-24T09:58:31.708Z,10.23
2023-01-24T10:01:02.407Z,14.07
2023-01-24T10:03:30.177Z,12.60
2023-01-24T10:06:02.221Z,13.23
2023-01-24T10:08:37.120Z,12.10
2023-01-24T10:11:20.928Z,13.07
2023-01-24T10:14:06.039Z,13.60
2023-01-24T10:17:13.624Z,10.83
2023-01-24T10:20:03.150Z,10.93
2023-01-24T10:22:56.533Z,12.37
2023-01-24T10:25:27.246Z,11.63
2023-01-24T10:28:02.666Z,13.50
2023-01-24T10:30:43.878Z,15.37
2023-01-24T10:33:17.658Z,13.27
2023-01-24T10:35:57.507Z,11.53
2023-01-24T10:38:25.925Z,12.30
2023-01-24T10:40:56.708Z,10.17
2023-01-24T10:43:30.160Z,13.37
2023-01-24T10:46:11.858Z,13.13
2023-01-24T10:48:43.620Z,14.03
2023-01-24T10:51:19.115Z,10.93
2023-01-24T10:53:47.364Z,13.03
2023-01-24T10:56:17.103Z,14.03
2023-01-24T10:58:57.677Z,11.73
2023-01-24T11:01:33.458Z,11.77
2023-01-24T11:04:01.434Z,13.77
2023-01-24T11:06:36.155Z,11.50
2023-01-24T11:09:06.259Z,11.87
2023-01-24T11:11:35.525Z,12.97
2023-01-24T11:14:05.112Z,12.40
2023-01-24T11:16:35.844Z,11.87
2023-01-24T11:19:07.112Z,11.90
2023-01-24T11:21:50.946Z,16.43
2023-01-24T11:24:20.547Z,12.80
2023-01-24T11:27:02.917Z,25.57
2023-01-24T11:29:33.856Z,18.77
2023-01-24T11:32:19.370Z,12.50
2023-01-24T11:34:58.775Z,13.33
2023-01-24T11:37:41.412Z,15.37
2023-01-24T11:40:26.166Z,16.60
2023-01-24T11:43:07.141Z,15.47
2023-01-24T11:46:02.802Z,16.00
2023-01-24T11:48:44.139Z,12.93
2023-01-24T11:51:20.733Z,13.90
2023-01-24T11:54:12.723Z,11.33
2023-01-24T11:56:49.593Z,11.67
2023-01-24T11:59:33.326Z,12.87
2023-01-24T12:02:16.593Z,15.27
2023-01-24T12:05:08.050Z,12.97
2023-01-24T12:07:50.123Z,12.87
2023-01-24T12:10:24.842Z,12.13
2023-01-24T12:13:01.332Z,11.40
2023-01-24T12:15:39.410Z,11.17
2023-01-24T12:18:39.630Z,14.00
2023-01-24T12:21:09.347Z,16.93
2023-01-24T12:23:45.187Z,12.83
2023-01-24T12:26:18.802Z,10.53
2023-01-24T12:28:55.426Z,13.40
2023-01-24T12:31:30.009Z,12.60
2023-01-24T12:34:03.477Z,15.20
2023-01-24T12:36:39.738Z,11.97
2023-01-24T12:39:15.972Z,15.50
2023-01-24T12:41:47.828Z,15.40
2023-01-24T12:44:26.968Z,11.77
2023-01-24T12:47:24.753Z,15.73
2023-01-24T12:50:05.778Z,14.77
2023-01-24T12:52:40.340Z,16.53
2023-01-24T12:55:15.298Z,15.77
2023-01-24T12:57:47.284Z,18.47
2023-01-24T13:00:18.796Z,14.47
2023-01-24T13:03:31.183Z,13.93
2023-01-24T13:06:11.588Z,16.13
2023-01-24T13:08:52.188Z,18.67
2023-01-24T13:11:22.911Z,14.67
2023-01-24T13:14:03.629Z,12.87
2023-01-24T13:17:00.509Z,14.77
2023-01-24T13:19:41.729Z,12.97
2023-01-24T13:22:32.560Z,16.67
2023-01-24T13:25:10.771Z,13.63
2023-01-24T13:27:46.648Z,23.93
2023-01-24T13:30:27.582Z,16.63
2023-01-24T13:32:59.162Z,16.73
2023-01-24T13:35:28.077Z,16.93
2023-01-24T13:38:01.257Z,16.80
2023-01-24T13:40:35.767Z,18.67
2023-01-24T13:43:03.675Z,19.00
2023-01-24T13:45:58.402Z,18.07
2023-01-24T13:48:46.749Z,14.13
2023-01-24T13:51:33.469Z,20.43
2023-01-24T13:54:04.477Z,16.80
2023-01-24T13:56:32.683Z,14.37
2023-01-24T13:59:01.426Z,14.93
2023-01-24T14:01:29.545Z,15.20
2023-01-24T14:04:01.128Z,17.43
2023-01-24T14:06:40.373Z,14.87
2023-01-24T14:09:22.044Z,14.13
2023-01-24T14:12:04.126Z,17.73
2023-01-24T14:15:00.544Z,16.47
2023-01-24T14:17:49.381Z,16.03
2023-01-24T14:20:37.480Z,16.87
2023-01-24T14:23:12.952Z,15.43
2023-01-24T14:25:50.441Z,20.20
2023-01-24T14:28:27.915Z,17.57
2023-01-24T14:30:58.894Z,17.63
2023-01-24T14:33:35.870Z,18.07
2023-01-24T14:36:14.619Z,19.67
2023-01-24T14:38:42.356Z,17.40
2023-01-24T14:41:22.693Z,15.70
2023-01-24T14:43:51.661Z,21.37
2023-01-24T14:46:26.200Z,20.73
2023-01-24T14:48:54.175Z,19.07
2023-01-24T14:51:25.704Z,18.17
2023-01-24T14:53:55.268Z,18.73
2023-01-24T14:56:26.121Z,17.27
2023-01-24T14:58:55.997Z,17.73
2023-01-24T15:01:29.711Z,20.43
2023-01-24T15:03:57.896Z,18.97
2023-01-24T15:06:28.083Z,20.37
2023-01-24T15:08:57.069Z,18.53
2023-01-24T15:11:30.288Z,16.80
2023-01-24T15:14:00.711Z,14.73
2023-01-24T15:16:36.083Z,18.00
2023-01-24T15:19:07.550Z,21.00
2023-01-24T15:21:39.966Z,19.13
2023-01-24T15:24:20.053Z,20.60
2023-01-24T15:26:49.217Z,18.67
2023-01-24T15:29:47.813Z,18.33
2023-01-24T15:32:30.311Z,17.97
2023-01-24T15:35:24.419Z,19.20
2023-01-24T15:38:12.636Z,19.97
2023-01-24T15:40:48.992Z,22.17
2023-01-24T15:43:39.859Z,18.37
2023-01-24T15:46:27.270Z,21.80
2023-01-24T15:48:58.840Z,22.27
2023-01-24T15:51:32.861Z,19.03
2023-01-24T15:54:13.967Z,20.90
2023-01-24T15:57:00.711Z,22.47
2023-01-24T15:59:29.203Z,24.80
2023-01-24T16:01:56.907Z,20.10
2023-01-24T16:04:25.362Z,22.00
2023-01-24T16:06:53.214Z,19.87
2023-01-24T16:09:22.225Z,19.47
2023-01-24T16:11:50.645Z,21.53
2023-01-24T16:14:23.606Z,20.73
2023-01-24T16:16:55.002Z,21.07
2023-01-24T16:19:24.588Z,22.93
2023-01-24T16:21:52.896Z,23.10
2023-01-24T16:24:22.002Z,20.20
2023-01-24T16:26:57.311Z,16.57
2023-01-24T16:29:28.911Z,19.57
2023-01-24T16:31:56.668Z,19.00
2023-01-24T16:34:24.351Z,25.20
2023-01-24T16:36:52.070Z,20.03
2023-01-24T16:39:22.643Z,20.33
2023-01-24T16:41:51.822Z,20.10
2023-01-24T16:44:19.549Z,21.63
2023-01-24T16:46:51.923Z,18.87
2023-01-24T16:49:19.795Z,23.27
2023-01-24T16:51:48.086Z,20.73
2023-01-24T16:54:16.068Z,19.97
2023-01-24T16:56:45.954Z,17.50
2023-01-24T16:59:13.906Z,20.60
2023-01-24T17:01:42.185Z,25.47
2023-01-24T17:04:09.957Z,20.33
2023-01-24T17:06:37.571Z,20.00
2023-01-24T17:09:06.517Z,21.50
2023-01-24T17:11:34.164Z,20.70
2023-01-24T17:14:03.139Z,20.57
2023-01-24T17:16:30.719Z,21.40
2023-01-24T17:18:59.779Z,24.17
2023-01-24T17:21:27.393Z,24.50
2023-01-24T17:23:55.048Z,20.83
2023-01-24T17:26:22.886Z,21.60
2023-01-24T17:28:50.502Z,20.10
2023-01-24T17:31:21.266Z,18.33
2023-01-24T17:33:49.226Z,21.93
2023-01-24T17:36:19.252Z,21.30
2023-01-24T17:38:47.247Z,20.70
2023-01-24T17:41:15.785Z,23.03
2023-01-24T17:43:52.311Z,21.47
2023-01-24T17:46:22.353Z,21.13
2023-01-24T17:48:50.180Z,22.67
2023-01-24T17:51:19.393Z,16.47
2023-01-24T17:53:47.871Z,23.47
2023-01-24T17:56:16.902Z,20.17
2023-01-24T17:58:45.214Z,21.43
2023-01-24T18:01:13.200Z,16.63
2023-01-24T18:03:44.849Z,23.13
2023-01-24T18:06:12.705Z,20.27
2023-01-24T18:08:40.370Z,21.17
2023-01-24T18:11:09.630Z,85.43
2023-01-24T18:13:38.005Z,25.30
2023-01-24T18:16:07.792Z,25.33
2023-01-24T18:18:37.179Z,21.67
2023-01-24T18:21:10.838Z,24.93
2023-01-24T18:23:38.570Z,26.07
2023-01-24T18:26:07.003Z,21.87
2023-01-24T18:28:35.518Z,24.10
2023-01-24T18:31:07.764Z,21.17
2023-01-24T18:33:35.587Z,21.93
2023-01-24T18:36:07.786Z,27.60
2023-01-24T18:38:36.894Z,22.43
2023-01-24T18:41:04.864Z,20.67
2023-01-24T18:43:32.561Z,22.67
2023-01-24T18:46:03.064Z,24.57
2023-01-24T18:48:33.440Z,22.80
2023-01-24T18:51:05.576Z,25.23
2023-01-24T18:53:33.217Z,25.17
2023-01-24T18:56:03.903Z,27.40
2023-01-24T18:58:32.204Z,21.03
2023-01-24T19:01:00.083Z,22.50
2023-01-24T19:03:27.791Z,18.97
2023-01-24T19:05:55.370Z,21.03
2023-01-24T19:08:24.113Z,23.37
2023-01-24T19:10:52.457Z,21.37
2023-01-24T19:13:21.387Z,21.83
2023-01-24T19:15:48.998Z,29.17
2023-01-24T19:18:17.855Z,37.63
2023-01-24T19:20:45.489Z,31.47
2023-01-24T19:23:13.060Z,26.37
2023-01-24T19:25:40.656Z,19.67
2023-01-24T19:28:08.232Z,26.53
2023-01-24T19:30:37.486Z,27.80
2023-01-24T19:33:05.204Z,18.40
2023-01-24T19:35:32.990Z,25.30
2023-01-24T19:38:00.555Z,22.87
2023-01-24T19:40:28.278Z,27.10
2023-01-24T19:42:55.850Z,31.00
2023-01-24T19:45:23.449Z,22.37
2023-01-24T19:47:54.316Z,27.20
2023-01-24T19:50:21.937Z,20.33
2023-01-24T19:52:50.003Z,18.43
2023-01-24T19:55:17.617Z,22.60
2023-01-24T19:57:45.200Z,23.43
2023-01-24T20:00:13.640Z,24.73
2023-01-24T20:02:45.517Z,24.67
2023-01-24T20:05:14.556Z,20.43
2023-01-24T20:07:42.148Z,19.30
2023-01-24T20:10:11.239Z,23.63
2023-01-24T20:12:41.516Z,22.17
2023-01-24T20:15:10.487Z,20.50
2023-01-24T20:17:38.048Z,20.37
2023-01-24T20:20:06.531Z,22.40
2023-01-24T20:22:35.535Z,20.50
2023-01-24T20:25:13.628Z,21.50
2023-01-24T20:27:46.581Z,19.97
2023-01-24T20:30:14.836Z,19.40
2023-01-24T20:32:43.352Z,17.90
2023-01-24T20:35:11.329Z,24.37
2023-01-24T20:37:40.252Z,19.60
2023-01-24T20:40:09.996Z,22.97
2023-01-24T20:42:41.709Z,18.13
2023-01-24T20:45:10.607Z,21.60
2023-01-24T20:47:39.529Z,16.53
2023-01-24T20:50:08.562Z,21.37
2023-01-24T20:52:36.172Z,22.03
2023-01-24T20:55:06.217Z,22.57
2023-01-24T20:57:34.777Z,19.90
2023-01-24T21:00:02.392Z,19.97
2023-01-24T21:02:30.102Z,19.23
2023-01-24T21:04:57.699Z,23.10
2023-01-24T21:07:25.366Z,20.97
2023-01-24T21:09:52.993Z,21.90
2023-01-24T21:12:21.960Z,18.03
2023-01-24T21:14:49.551Z,22.30
2023-01-24T21:17:19.680Z,20.23
2023-01-24T21:19:48.311Z,21.43
2023-01-24T21:22:15.906Z,24.07
2023-01-24T21:24:43.724Z,21.73
2023-01-24T21:27:11.514Z,21.53
2023-01-24T21:29:40.438Z,25.57
2023-01-24T21:32:08.229Z,24.07
2023-01-24T21:34:35.908Z,21.37
2023-01-24T21:37:03.600Z,24.30
2023-01-24T21:39:31.286Z,22.57
2023-01-24T21:42:00.204Z,31.17
2023-01-24T21:44:30.867Z,27.47
2023-01-24T21:47:00.745Z,28.47
2023-01-24T21:49:28.451Z,25.87
2023-01-24T21:51:58.703Z,27.80
2023-01-24T21:54:28.119Z,29.67
2023-01-24T21:57:29.637Z,28.67
2023-01-24T21:59:59.595Z,27.10
2023-01-24T22:02:30.416Z,27.83
2023-01-24T22:04:58.607Z,33.33
2023-01-24T22:07:27.890Z,29.83
2023-01-24T22:09:56.882Z,27.60
2023-01-24T22:12:24.906Z,28.03
2023-01-24T22:14:52.994Z,25.70
2023-01-24T22:17:22.835Z,26.03
2023-01-24T22:19:53.675Z,27.23
2023-01-24T22:22:46.428Z,29.57
2023-01-24T22:25:19.347Z,29.80
2023-01-24T22:27:48.015Z,26.10
2023-01-24T22:30:18.888Z,28.53
2023-01-24T22:32:47.934Z,26.10
2023-01-24T22:35:19.693Z,27.33
2023-01-24T22:37:49.608Z,29.63
2023-01-24T22:40:19.402Z,27.50
2023-01-24T22:42:47.212Z,28.43
2023-01-24T22:45:15.052Z,27.40
2023-01-24T22:47:42.618Z,26.57
2023-01-24T22:50:11.647Z,30.00
2023-01-24T22:52:40.733Z,25.33
2023-01-24T22:55:09.323Z,31.03
2023-01-24T22:57:37.094Z,27.50
2023-01-24T23:00:06.892Z,26.93
2023-01-24T23:02:34.500Z,29.90
2023-01-24T23:05:02.214Z,29.10
2023-01-24T23:07:30.042Z,27.20
2023-01-24T23:09:58.997Z,30.83
2023-01-24T23:12:44.387Z,27.77
2023-01-24T23:15:30.760Z,22.03
2023-01-24T23:17:58.406Z,26.53
2023-01-24T23:20:43.817Z,23.67
2023-01-24T23:23:11.384Z,23.43
2023-01-24T23:25:40.359Z,24.33
2023-01-24T23:28:07.945Z,28.03
2023-01-24T23:30:43.714Z,23.13
2023-01-24T23:33:29.743Z,25.73
2023-01-24T23:35:57.933Z,23.27
2023-01-24T23:38:25.731Z,24.37
2023-01-24T23:40:54.717Z,20.77
2023-01-24T23:43:22.502Z,23.43
2023-01-24T23:45:50.143Z,21.13
2023-01-24T23:48:17.809Z,23.50
2023-01-24T23:50:45.426Z,23.93
2023-01-24T23:53:12.994Z,25.97
2023-01-24T23:55:46.632Z,23.67
2023-01-24T23:58:15.825Z,22.90
